Time;durP1;ratioP1;P1;durP2;ratioP2;P2;SDS_P1;SDS_P2;PMS_P1;PMS_P2;Temp;Humidity;BMP_temperature;BMP_pressure;BME280_temperature;BME280_humidity;BME280_pressure;Samples;Min_cycle;Max_cycle;Signal;HPM_P1;HPM_P2
2024/01/23 00:00:35;;;;;;;1.85;1.70;;;;;;;;;;5863629;28;20049;-78
2024/01/23 00:03:28;;;;;;;2.30;1.67;;;;;;;;;;5864834;28;20045;-79
2024/01/23 00:06:18;;;;;;;3.88;3.22;;;;;;;;;;5878429;28;20048;-79
2024/01/23 00:09:09;;;;;;;3.17;2.30;;;;;;;;;;5862266;28;20527;-79
2024/01/23 00:12:02;;;;;;;3.80;2.78;;;;;;;;;;5862507;28;20041;-79
2024/01/23 00:14:54;;;;;;;3.53;2.85;;;;;;;;;;5863717;28;20045;-80
2024/01/23 00:17:45;;;;;;;5.78;2.45;;;;;;;;;;5861820;28;20045;-79
2024/01/23 00:20:36;;;;;;;1.75;1.40;;;;;;;;;;5863454;28;20053;-79
2024/01/23 00:23:28;;;;;;;2.33;2.00;;;;;;;;;;5878213;28;20048;-80
2024/01/23 00:26:19;;;;;;;2.25;2.05;;;;;;;;;;5862963;28;20203;-79
2024/01/23 00:29:10;;;;;;;4.85;1.80;;;;;;;;;;5863247;28;20426;-79
2024/01/23 00:32:02;;;;;;;21.98;1.88;;;;;;;;;;5861711;28;20090;-79
2024/01/23 00:34:53;;;;;;;5.13;1.67;;;;;;;;;;5863621;28;20045;-79
2024/01/23 00:37:43;;;;;;;3.88;2.65;;;;;;;;;;5863130;28;20047;-80
2024/01/23 00:40:34;;;;;;;2.38;1.70;;;;;;;;;;5861965;28;20052;-79
2024/01/23 00:43:27;;;;;;;1.88;1.10;;;;;;;;;;5862505;28;20049;-80
2024/01/23 00:46:18;;;;;;;4.30;3.00;;;;;;;;;;5861475;28;20060;-80
2024/01/23 00:49:08;;;;;;;3.90;2.33;;;;;;;;;;5862894;28;20076;-80
2024/01/23 00:51:59;;;;;;;2.03;1.10;;;;;;;;;;5863245;28;20041;-79
2024/01/23 00:54:50;;;;;;;2.95;1.70;;;;;;;;;;5861415;28;20045;-79
2024/01/23 00:57:41;;;;;;;3.45;2.17;;;;;;;;;;5862469;28;20520;-79
2024/01/23 01:00:32;;;;;;;3.83;1.60;;;;;;;;;;5861177;28;20041;-79
2024/01/23 01:03:23;;;;;;;2.50;1.52;;;;;;;;;;5870739;28;20098;-79
2024/01/23 01:06:14;;;;;;;3.03;1.98;;;;;;;;;;5885761;28;20533;-79
2024/01/23 01:09:05;;;;;;;2.55;1.92;;;;;;;;;;5885891;28;20069;-79
2024/01/23 01:11:56;;;;;;;2.65;1.27;;;;;;;;;;5892503;28;20045;-78
2024/01/23 01:14:47;;;;;;;1.70;1.45;;;;;;;;;;5891850;28;20041;-79
2024/01/23 01:17:38;;;;;;;2.22;1.30;;;;;;;;;;5893209;28;20041;-79
2024/01/23 01:20:29;;;;;;;2.55;1.90;;;;;;;;;;5891922;28;20128;-78
2024/01/23 01:23:19;;;;;;;3.13;1.90;;;;;;;;;;5893105;28;20048;-78
2024/01/23 01:26:10;;;;;;;3.90;2.38;;;;;;;;;;5891856;28;20056;-78
2024/01/23 01:29:01;;;;;;;1.55;1.42;;;;;;;;;;5892986;28;20070;-79
2024/01/23 01:31:52;;;;;;;2.08;1.52;;;;;;;;;;5892256;28;20052;-79
2024/01/23 01:34:43;;;;;;;4.32;2.00;;;;;;;;;;5891850;28;20041;-78
2024/01/23 01:37:34;;;;;;;2.75;1.83;;;;;;;;;;5908322;28;20067;-78
2024/01/23 01:40:25;;;;;;;2.78;1.95;;;;;;;;;;5893045;28;20084;-79
2024/01/23 01:43:27;;;;;;;3.25;1.45;;;;;;;;;;5891749;28;20048;-78
2024/01/23 01:46:24;;;;;;;2.28;1.85;;;;;;;;;;5891494;28;20710;-78
2024/01/23 01:49:16;;;;;;;1.77;1.50;;;;;;;;;;5891555;28;20414;-77
2024/01/23 01:52:08;;;;;;;3.40;2.55;;;;;;;;;;5891595;28;20056;-79
2024/01/23 01:54:59;;;;;;;4.22;2.13;;;;;;;;;;5893207;28;20045;-78
2024/01/23 01:57:51;;;;;;;3.95;2.03;;;;;;;;;;5891721;28;20499;-77
2024/01/23 02:00:41;;;;;;;3.60;2.83;;;;;;;;;;5891317;28;20057;-78
2024/01/23 02:03:32;;;;;;;5.90;3.08;;;;;;;;;;5891637;28;20146;-78
2024/01/23 02:06:24;;;;;;;3.28;2.03;;;;;;;;;;5891362;28;20061;-78
2024/01/23 02:09:15;;;;;;;3.38;1.60;;;;;;;;;;5891547;28;20049;-78
2024/01/23 02:12:07;;;;;;;2.92;1.85;;;;;;;;;;5908058;28;20060;-78
2024/01/23 02:14:58;;;;;;;3.80;2.33;;;;;;;;;;5891870;28;20128;-78
2024/01/23 02:17:48;;;;;;;6.35;2.83;;;;;;;;;;5891326;28;20079;-78
2024/01/23 02:20:39;;;;;;;5.15;2.40;;;;;;;;;;5891158;28;20049;-77
2024/01/23 02:23:31;;;;;;;3.65;2.63;;;;;;;;;;5887425;28;20052;-78
2024/01/23 02:26:21;;;;;;;5.65;2.30;;;;;;;;;;5887671;28;20394;-78
2024/01/23 02:29:14;;;;;;;5.53;2.97;;;;;;;;;;5887502;28;20063;-78
2024/01/23 02:32:05;;;;;;;3.83;2.03;;;;;;;;;;5887564;28;20049;-78
2024/01/23 02:34:56;;;;;;;4.90;2.22;;;;;;;;;;5889633;28;20045;-78
2024/01/23 02:37:47;;;;;;;3.13;2.25;;;;;;;;;;5888728;28;20044;-77
2024/01/23 02:40:38;;;;;;;4.88;2.88;;;;;;;;;;5904016;28;20414;-78
2024/01/23 02:43:28;;;;;;;2.58;2.38;;;;;;;;;;5888388;28;20041;-77
2024/01/23 02:46:19;;;;;;;2.00;1.35;;;;;;;;;;5887202;28;20037;-78
2024/01/23 02:49:10;;;;;;;3.47;1.65;;;;;;;;;;5887177;28;20056;-78
2024/01/23 02:52:03;;;;;;;4.32;2.30;;;;;;;;;;5887198;28;20410;-78
2024/01/23 02:54:54;;;;;;;1.80;1.63;;;;;;;;;;5887158;28;20052;-77
2024/01/23 02:57:45;;;;;;;3.05;1.73;;;;;;;;;;5888057;28;20045;-78
2024/01/23 03:00:37;;;;;;;5.93;3.10;;;;;;;;;;5888143;28;20072;-77
2024/01/23 03:03:28;;;;;;;2.03;1.77;;;;;;;;;;5888191;28;20040;-77
2024/01/23 03:06:19;;;;;;;3.63;1.88;;;;;;;;;;5886353;28;20175;-78
2024/01/23 03:09:10;;;;;;;2.53;2.33;;;;;;;;;;5888011;28;20156;-78
2024/01/23 03:12:13;;;;;;;4.22;2.20;;;;;;;;;;5888249;28;20114;-78
2024/01/23 03:15:05;;;;;;;4.28;1.92;;;;;;;;;;5886701;28;20056;-78
2024/01/23 03:17:55;;;;;;;4.50;2.90;;;;;;;;;;5903326;28;20144;-78
2024/01/23 03:20:47;;;;;;;5.22;2.67;;;;;;;;;;5886105;28;20132;-78
2024/01/23 03:23:38;;;;;;;5.50;2.45;;;;;;;;;;5887921;28;20107;-77
2024/01/23 03:26:28;;;;;;;2.60;2.00;;;;;;;;;;5887392;28;20415;-78
2024/01/23 03:29:19;;;;;;;4.03;2.28;;;;;;;;;;5886203;28;20071;-78
2024/01/23 03:32:11;;;;;;;5.43;2.55;;;;;;;;;;5887546;28;20423;-79
2024/01/23 03:35:03;;;;;;;3.53;2.80;;;;;;;;;;5886180;28;20519;-78
2024/01/23 03:37:53;;;;;;;2.65;2.45;;;;;;;;;;5886091;28;20048;-78
2024/01/23 03:40:44;;;;;;;2.83;2.63;;;;;;;;;;5887380;28;20418;-78
2024/01/23 03:43:35;;;;;;;3.67;2.08;;;;;;;;;;5887340;28;20052;-78
2024/01/23 03:46:26;;;;;;;5.20;3.83;;;;;;;;;;5885643;28;20491;-78
2024/01/23 03:49:17;;;;;;;4.55;2.33;;;;;;;;;;5886885;28;20049;-78
2024/01/23 03:52:08;;;;;;;8.98;4.38;;;;;;;;;;5885799;28;20052;-78
2024/01/23 03:54:59;;;;;;;4.80;2.70;;;;;;;;;;5885930;28;20563;-78
2024/01/23 03:57:50;;;;;;;3.20;2.28;;;;;;;;;;5887032;28;20041;-78
2024/01/23 04:00:40;;;;;;;3.45;3.15;;;;;;;;;;5886811;28;20384;-78
2024/01/23 04:03:31;;;;;;;4.25;2.67;;;;;;;;;;5885326;28;20131;-78
2024/01/23 04:06:22;;;;;;;4.32;2.50;;;;;;;;;;5885059;28;20128;-77
2024/01/23 04:09:13;;;;;;;5.90;2.67;;;;;;;;;;5886516;28;20510;-78
2024/01/23 04:12:04;;;;;;;4.57;2.72;;;;;;;;;;5885405;28;20521;-78
2024/01/23 04:14:55;;;;;;;4.35;2.22;;;;;;;;;;5887045;28;20490;-78
2024/01/23 04:17:46;;;;;;;3.03;2.53;;;;;;;;;;5901770;28;20407;-77
2024/01/23 04:20:38;;;;;;;4.07;2.28;;;;;;;;;;5884925;28;20041;-78
2024/01/23 04:23:28;;;;;;;1.88;1.77;;;;;;;;;;5884947;28;20136;-78
2024/01/23 04:26:19;;;;;;;5.80;4.10;;;;;;;;;;5884782;28;20044;-78
2024/01/23 04:29:10;;;;;;;2.58;2.33;;;;;;;;;;5884862;28;20087;-78
2024/01/23 04:32:01;;;;;;;5.88;3.13;;;;;;;;;;5884966;28;20055;-79
2024/01/23 04:34:52;;;;;;;5.38;2.80;;;;;;;;;;5884833;28;20103;-78
2024/01/23 04:37:43;;;;;;;3.13;2.35;;;;;;;;;;5884802;28;20044;-78
2024/01/23 04:40:33;;;;;;;5.90;4.57;;;;;;;;;;5884882;28;20044;-78
2024/01/23 04:43:24;;;;;;;7.82;4.50;;;;;;;;;;5885711;28;20048;-78
2024/01/23 04:46:15;;;;;;;4.53;3.85;;;;;;;;;;5884087;28;20037;-78
2024/01/23 04:49:05;;;;;;;11.75;4.47;;;;;;;;;;5886183;28;20048;-79
2024/01/23 04:51:56;;;;;;;11.85;3.08;;;;;;;;;;5901379;28;20045;-78
2024/01/23 04:54:47;;;;;;;4.88;3.35;;;;;;;;;;5900818;28;20049;-78
2024/01/23 04:57:38;;;;;;;7.13;4.18;;;;;;;;;;5884319;28;20441;-78
2024/01/23 05:00:29;;;;;;;6.13;3.45;;;;;;;;;;5885700;28;20049;-77
2024/01/23 05:03:20;;;;;;;7.93;4.40;;;;;;;;;;5885332;28;20059;-78
2024/01/23 05:06:10;;;;;;;9.27;3.47;;;;;;;;;;5885693;28;20357;-78
2024/01/23 05:09:02;;;;;;;7.28;4.25;;;;;;;;;;5885553;28;20049;-79
2024/01/23 05:11:53;;;;;;;12.13;4.28;;;;;;;;;;5884799;28;20041;-78
2024/01/23 05:14:43;;;;;;;7.13;4.03;;;;;;;;;;5884089;28;20418;-78
2024/01/23 05:17:34;;;;;;;7.78;4.03;;;;;;;;;;5885544;28;20041;-78
2024/01/23 05:20:25;;;;;;;4.68;2.88;;;;;;;;;;5883993;28;20121;-77
2024/01/23 05:23:16;;;;;;;4.60;3.15;;;;;;;;;;5885468;28;20045;-78
2024/01/23 05:26:07;;;;;;;7.05;4.07;;;;;;;;;;5883910;28;20052;-78
2024/01/23 05:28:58;;;;;;;15.80;5.53;;;;;;;;;;5884510;28;20460;-78
2024/01/23 05:31:49;;;;;;;9.07;5.13;;;;;;;;;;5883825;28;20049;-78
2024/01/23 05:34:40;;;;;;;6.43;4.10;;;;;;;;;;5884010;28;20045;-78
2024/01/23 05:37:31;;;;;;;8.85;4.35;;;;;;;;;;5883784;28;20099;-78
2024/01/23 05:40:23;;;;;;;7.32;5.60;;;;;;;;;;5885063;28;20491;-78
2024/01/23 05:43:14;;;;;;;6.20;4.05;;;;;;;;;;5883969;28;20090;-79
2024/01/23 05:46:04;;;;;;;5.25;3.53;;;;;;;;;;5883884;28;20045;-79
2024/01/23 05:48:55;;;;;;;12.85;4.05;;;;;;;;;;5885262;28;20048;-78
2024/01/23 05:51:47;;;;;;;8.50;3.92;;;;;;;;;;5883640;28;20045;-78
2024/01/23 05:54:41;;;;;;;8.10;4.55;;;;;;;;;;5883492;28;20041;-78
2024/01/23 05:57:32;;;;;;;7.35;4.85;;;;;;;;;;5902962;28;20506;-78
2024/01/23 06:00:23;;;;;;;9.25;3.85;;;;;;;;;;5887860;28;20098;-78
2024/01/23 06:03:14;;;;;;;14.35;5.32;;;;;;;;;;5887780;28;20106;-78
2024/01/23 06:06:06;;;;;;;6.28;4.03;;;;;;;;;;5887795;28;20087;-79
2024/01/23 06:08:56;;;;;;;5.57;4.05;;;;;;;;;;5888411;28;20498;-78
2024/01/23 06:11:47;;;;;;;4.38;3.60;;;;;;;;;;5871414;28;20064;-78
2024/01/23 06:14:38;;;;;;;7.13;4.75;;;;;;;;;;5889073;28;20049;-78
2024/01/23 06:17:29;;;;;;;5.05;4.55;;;;;;;;;;5889060;28;20418;-78
2024/01/23 06:20:20;;;;;;;7.35;3.22;;;;;;;;;;5888591;28;20111;-78
2024/01/23 06:23:11;;;;;;;4.30;2.97;;;;;;;;;;5888733;28;20424;-78
2024/01/23 06:26:02;;;;;;;6.40;4.55;;;;;;;;;;5888838;28;20422;-79
2024/01/23 06:28:53;;;;;;;12.93;4.95;;;;;;;;;;5887798;28;20048;-78
2024/01/23 06:31:44;;;;;;;12.25;5.22;;;;;;;;;;5888744;28;20044;-78
2024/01/23 06:34:35;;;;;;;8.77;4.65;;;;;;;;;;5887308;28;20166;-78
2024/01/23 06:37:26;;;;;;;15.65;5.15;;;;;;;;;;5888651;28;20055;-78
2024/01/23 06:40:16;;;;;;;11.07;5.43;;;;;;;;;;5888265;28;20045;-78
2024/01/23 06:43:07;;;;;;;14.07;9.18;;;;;;;;;;5903742;28;20060;-78
2024/01/23 06:45:59;;;;;;;15.85;9.90;;;;;;;;;;5888829;28;20098;-78
2024/01/23 06:48:50;;;;;;;14.85;8.88;;;;;;;;;;5903736;28;20044;-78
2024/01/23 06:51:41;;;;;;;12.55;6.68;;;;;;;;;;5886798;28;20051;-78
2024/01/23 06:54:32;;;;;;;14.02;7.53;;;;;;;;;;5887899;28;20048;-78
2024/01/23 06:57:24;;;;;;;7.18;5.47;;;;;;;;;;5886903;28;20048;-78
2024/01/23 07:00:17;;;;;;;15.90;8.32;;;;;;;;;;5886775;28;20052;-79
2024/01/23 07:03:09;;;;;;;6.47;4.65;;;;;;;;;;5886455;28;20132;-79
2024/01/23 07:06:00;;;;;;;14.52;6.47;;;;;;;;;;5888417;28;20126;-78
2024/01/23 07:08:53;;;;;;;12.07;7.45;;;;;;;;;;5886188;28;20037;-78
2024/01/23 07:11:46;;;;;;;13.80;8.30;;;;;;;;;;5886562;28;20056;-78
2024/01/23 07:14:37;;;;;;;7.90;4.70;;;;;;;;;;5886526;28;20044;-78
2024/01/23 07:17:30;;;;;;;10.43;5.78;;;;;;;;;;5887669;28;20045;-79
2024/01/23 07:20:21;;;;;;;7.43;4.50;;;;;;;;;;5886255;28;20075;-78
2024/01/23 07:23:12;;;;;;;5.88;3.65;;;;;;;;;;5887596;28;20049;-78
2024/01/23 07:26:03;;;;;;;5.40;3.80;;;;;;;;;;5886343;28;20045;-79
2024/01/23 07:28:54;;;;;;;8.80;5.03;;;;;;;;;;5902777;28;20041;-79
2024/01/23 07:31:51;;;;;;;9.15;5.43;;;;;;;;;;5886373;28;20510;-78
2024/01/23 07:34:42;;;;;;;6.35;4.47;;;;;;;;;;5887223;28;20438;-78
2024/01/23 07:37:33;;;;;;;11.10;6.82;;;;;;;;;;5887162;28;20132;-78
2024/01/23 07:40:24;;;;;;;16.92;8.25;;;;;;;;;;5887106;28;20064;-78
2024/01/23 07:43:17;;;;;;;22.27;18.42;;;;;;;;;;5885693;28;20449;-78
2024/01/23 07:46:07;;;;;;;32.55;19.05;;;;;;;;;;5885657;28;20053;-79
2024/01/23 07:48:58;;;;;;;36.10;19.65;;;;;;;;;;5887520;28;20041;-78
2024/01/23 07:56:18;;;;;;;36.00;10.40;;;;;;;;;;5885743;28;20061;-78
2024/01/23 07:59:09;;;;;;;22.55;9.73;;;;;;;;;;5885333;28;20102;-78
2024/01/23 08:02:00;;;;;;;13.43;9.13;;;;;;;;;;5886030;28;20079;-78
2024/01/23 08:04:52;;;;;;;10.07;6.03;;;;;;;;;;5885374;28;20079;-78
2024/01/23 08:07:43;;;;;;;8.70;5.57;;;;;;;;;;5886578;28;20045;-78
2024/01/23 08:10:34;;;;;;;4.95;4.43;;;;;;;;;;5886439;28;20048;-78
2024/01/23 08:13:25;;;;;;;11.07;4.45;;;;;;;;;;5886373;28;20876;-78
2024/01/23 08:16:16;;;;;;;12.23;7.82;;;;;;;;;;5868500;28;20045;-78
2024/01/23 08:19:06;;;;;;;9.63;6.80;;;;;;;;;;5884330;28;20526;-79
2024/01/23 08:21:57;;;;;;;8.35;7.00;;;;;;;;;;5886649;28;20053;-78
2024/01/23 08:24:48;;;;;;;13.68;8.15;;;;;;;;;;5884899;28;20124;-78
2024/01/23 08:27:39;;;;;;;11.50;7.97;;;;;;;;;;5884717;28;20072;-78
2024/01/23 08:30:31;;;;;;;10.77;6.45;;;;;;;;;;5884855;28;20060;-78
2024/01/23 08:33:22;;;;;;;8.52;6.55;;;;;;;;;;5885730;28;20156;-78
2024/01/23 08:36:13;;;;;;;9.68;5.63;;;;;;;;;;5886141;28;20048;-78
2024/01/23 08:39:05;;;;;;;14.25;6.18;;;;;;;;;;5884684;28;20048;-79
2024/01/23 08:41:55;;;;;;;13.40;7.20;;;;;;;;;;5885198;28;20060;-78
2024/01/23 08:44:49;;;;;;;41.53;18.77;;;;;;;;;;5884643;28;20049;-78
2024/01/23 08:47:39;;;;;;;25.80;14.30;;;;;;;;;;5884551;28;20682;-78
2024/01/23 08:50:30;;;;;;;28.73;16.10;;;;;;;;;;5884399;28;20049;-78
2024/01/23 08:53:21;;;;;;;17.17;11.45;;;;;;;;;;5884234;28;20518;-78
2024/01/23 08:56:12;;;;;;;22.15;9.80;;;;;;;;;;5884317;28;20399;-78
2024/01/23 08:59:02;;;;;;;15.90;10.52;;;;;;;;;;5884452;28;20040;-78
2024/01/23 09:01:53;;;;;;;11.70;7.70;;;;;;;;;;5884614;28;20163;-78
2024/01/23 09:04:44;;;;;;;8.15;5.72;;;;;;;;;;5884237;28;20068;-78
2024/01/23 09:07:35;;;;;;;6.57;4.43;;;;;;;;;;5884180;28;20045;-78
2024/01/23 09:10:27;;;;;;;11.52;5.65;;;;;;;;;;5885146;28;20522;-78
2024/01/23 09:13:18;;;;;;;7.60;4.60;;;;;;;;;;5884024;28;20059;-78
2024/01/23 09:16:09;;;;;;;4.28;3.88;;;;;;;;;;5884048;28;20053;-78
2024/01/23 09:19:00;;;;;;;8.35;4.28;;;;;;;;;;5884523;28;20041;-78
2024/01/23 09:21:51;;;;;;;9.27;6.93;;;;;;;;;;5900557;28;20045;-78
2024/01/23 09:24:41;;;;;;;8.48;5.43;;;;;;;;;;5883965;28;20041;-78
2024/01/23 09:27:32;;;;;;;7.75;6.72;;;;;;;;;;5883986;28;20513;-79
2024/01/23 09:30:37;;;;;;;11.30;5.90;;;;;;;;;;5887050;28;20077;-78
2024/01/23 09:33:28;;;;;;;5.70;3.67;;;;;;;;;;5889933;28;20041;-78
2024/01/23 09:36:19;;;;;;;12.95;7.53;;;;;;;;;;5888494;28;20490;-78
2024/01/23 09:39:13;;;;;;;9.10;6.57;;;;;;;;;;5888923;28;20049;-77
2024/01/23 09:42:05;;;;;;;6.55;5.95;;;;;;;;;;5889698;28;20174;-78
2024/01/23 09:44:56;;;;;;;4.53;4.13;;;;;;;;;;5889337;28;20063;-77
2024/01/23 09:47:47;;;;;;;6.13;5.53;;;;;;;;;;5888155;28;20056;-78
2024/01/23 09:50:41;;;;;;;11.57;5.78;;;;;;;;;;5888237;28;20128;-78
2024/01/23 09:53:32;;;;;;;7.45;5.35;;;;;;;;;;5904550;28;20045;-78
2024/01/23 09:56:25;;;;;;;8.65;6.57;;;;;;;;;;5888068;28;20465;-78
2024/01/23 09:59:16;;;;;;;8.75;4.47;;;;;;;;;;5888192;28;20056;-77
2024/01/23 10:02:09;;;;;;;5.47;4.03;;;;;;;;;;5889315;28;20532;-78
2024/01/23 10:05:00;;;;;;;7.95;4.32;;;;;;;;;;5888542;28;20045;-78
2024/01/23 10:07:52;;;;;;;11.68;5.13;;;;;;;;;;5887821;28;20048;-78
2024/01/23 10:10:43;;;;;;;14.23;6.32;;;;;;;;;;5887656;28;20056;-78
2024/01/23 10:13:37;;;;;;;7.20;6.43;;;;;;;;;;5887702;28;20036;-78
2024/01/23 10:16:28;;;;;;;11.73;8.07;;;;;;;;;;5887842;28;20045;-77
2024/01/23 10:19:19;;;;;;;5.32;4.82;;;;;;;;;;5904447;28;20049;-77
2024/01/23 10:22:10;;;;;;;11.25;8.35;;;;;;;;;;5887595;28;20436;-78
2024/01/23 10:25:10;;;;;;;13.63;7.35;;;;;;;;;;5887301;28;20068;-77
2024/01/23 10:28:01;;;;;;;11.57;6.03;;;;;;;;;;5887741;28;20052;-78
2024/01/23 10:30:53;;;;;;;4.55;4.18;;;;;;;;;;5887820;28;20061;-77
2024/01/23 10:33:44;;;;;;;5.72;4.13;;;;;;;;;;5888617;28;20491;-77
2024/01/23 10:36:35;;;;;;;6.68;4.85;;;;;;;;;;5887195;28;20124;-77
2024/01/23 10:39:27;;;;;;;4.43;4.03;;;;;;;;;;5887397;28;20053;-77
2024/01/23 10:42:19;;;;;;;9.35;8.15;;;;;;;;;;5902728;28;20044;-78
2024/01/23 10:45:16;;;;;;;9.00;5.57;;;;;;;;;;5887340;28;20111;-78
2024/01/23 10:48:08;;;;;;;9.50;4.75;;;;;;;;;;5887001;28;20474;-78
2024/01/23 10:51:14;;;;;;;15.20;7.75;;;;;;;;;;5887369;28;20044;-78
2024/01/23 10:54:12;;;;;;;8.13;7.10;;;;;;;;;;5887853;28;20056;-78
2024/01/23 10:57:08;;;;;;;12.35;8.68;;;;;;;;;;5886861;28;20511;-78
2024/01/23 11:00:10;;;;;;;17.70;8.13;;;;;;;;;;5888388;28;20064;-77
2024/01/23 11:03:06;;;;;;;8.93;6.55;;;;;;;;;;5886240;28;20049;-77
2024/01/23 11:06:14;;;;;;;4.97;4.25;;;;;;;;;;5888718;28;20072;-76
2024/01/23 11:09:32;;;;;;;6.40;5.68;;;;;;;;;;5886436;28;20041;-77
2024/01/23 11:13:04;;;;;;;12.43;5.00;;;;;;;;;;5886689;28;20490;-77
2024/01/23 11:15:55;;;;;;;15.05;7.25;;;;;;;;;;5872445;28;20776;-77
2024/01/23 11:18:47;;;;;;;8.98;5.38;;;;;;;;;;5886270;28;20144;-77
2024/01/23 11:21:38;;;;;;;8.80;6.53;;;;;;;;;;5886239;28;20170;-76
2024/01/23 11:24:46;;;;;;;10.85;5.75;;;;;;;;;;5885810;28;20042;-77
2024/01/23 11:27:39;;;;;;;7.63;3.97;;;;;;;;;;5902139;28;20045;-77
2024/01/23 11:30:31;;;;;;;8.85;5.22;;;;;;;;;;5902302;28;20076;-77
2024/01/23 11:33:23;;;;;;;7.82;5.35;;;;;;;;;;5885907;28;20049;-77
2024/01/23 11:36:34;;;;;;;10.80;5.95;;;;;;;;;;5887391;28;20072;-77
2024/01/23 11:39:25;;;;;;;9.30;6.18;;;;;;;;;;5885830;28;20143;-76
2024/01/23 11:42:16;;;;;;;10.20;6.03;;;;;;;;;;5887137;28;20056;-77
2024/01/23 11:45:26;;;;;;;7.60;6.30;;;;;;;;;;5885888;28;20122;-77
2024/01/23 11:48:17;;;;;;;16.30;5.35;;;;;;;;;;5885591;28;20290;-77
2024/01/23 11:51:14;;;;;;;8.88;4.80;;;;;;;;;;5885816;28;20401;-77
2024/01/23 11:54:12;;;;;;;13.65;6.20;;;;;;;;;;5885346;28;20122;-77
2024/01/23 11:57:04;;;;;;;16.48;6.20;;;;;;;;;;5902020;28;20610;-77
2024/01/23 11:59:55;;;;;;;9.98;5.07;;;;;;;;;;5886023;28;20083;-76
2024/01/23 12:02:47;;;;;;;8.88;6.10;;;;;;;;;;5886916;28;20049;-76
2024/01/23 12:05:39;;;;;;;8.63;6.05;;;;;;;;;;5901676;28;20041;-76
2024/01/23 12:08:30;;;;;;;12.52;7.85;;;;;;;;;;5885194;28;20037;-77
2024/01/23 12:11:20;;;;;;;14.07;8.70;;;;;;;;;;5885116;28;20048;-76
2024/01/23 12:14:11;;;;;;;7.70;6.72;;;;;;;;;;5885133;28;20052;-77
2024/01/23 12:17:05;;;;;;;6.28;5.57;;;;;;;;;;5886520;28;20045;-76
2024/01/23 12:20:09;;;;;;;7.15;4.13;;;;;;;;;;5885473;28;20041;-77
2024/01/23 12:23:00;;;;;;;13.48;7.43;;;;;;;;;;5885315;28;20354;-76
2024/01/23 12:25:51;;;;;;;14.40;7.65;;;;;;;;;;5884636;28;20114;-76
2024/01/23 12:28:44;;;;;;;13.07;8.80;;;;;;;;;;5884656;28;20041;-76
2024/01/23 12:31:35;;;;;;;11.32;5.28;;;;;;;;;;5901111;28;20045;-76
2024/01/23 12:34:26;;;;;;;8.57;6.38;;;;;;;;;;5884800;28;20153;-76
2024/01/23 12:37:17;;;;;;;12.38;7.22;;;;;;;;;;5884365;28;20056;-76
2024/01/23 12:40:10;;;;;;;9.57;6.65;;;;;;;;;;5884518;28;20052;-76
2024/01/23 12:43:01;;;;;;;9.05;6.78;;;;;;;;;;5884545;28;20048;-76
2024/01/23 12:45:55;;;;;;;10.80;6.88;;;;;;;;;;5886321;28;20041;-76
2024/01/23 12:48:46;;;;;;;13.35;8.18;;;;;;;;;;5885065;28;20553;-76
2024/01/23 12:51:37;;;;;;;6.55;5.38;;;;;;;;;;5884385;28;20047;-76
2024/01/23 12:54:28;;;;;;;11.43;6.40;;;;;;;;;;5884357;28;20041;-76
2024/01/23 12:57:19;;;;;;;11.55;6.15;;;;;;;;;;5885643;28;20053;-76
2024/01/23 13:00:20;;;;;;;7.55;6.50;;;;;;;;;;5885515;28;20279;-77
2024/01/23 13:03:15;;;;;;;5.43;3.88;;;;;;;;;;5884357;28;20095;-75
2024/01/23 13:06:07;;;;;;;8.52;5.40;;;;;;;;;;5883855;28;20064;-75
2024/01/23 13:08:58;;;;;;;8.27;5.93;;;;;;;;;;5884628;28;20068;-75
2024/01/23 13:11:49;;;;;;;7.60;5.65;;;;;;;;;;5885337;28;20519;-76
2024/01/23 13:14:40;;;;;;;11.63;6.88;;;;;;;;;;5884027;28;20045;-76
2024/01/23 13:17:32;;;;;;;8.57;5.25;;;;;;;;;;5884030;28;20045;-76
2024/01/23 13:20:25;;;;;;;7.63;5.20;;;;;;;;;;5885251;28;20498;-76
2024/01/23 13:23:19;;;;;;;6.25;5.25;;;;;;;;;;5883987;28;20131;-76
2024/01/23 13:26:11;;;;;;;7.10;5.07;;;;;;;;;;5885345;28;20076;-76
2024/01/23 13:29:01;;;;;;;17.23;8.45;;;;;;;;;;5884293;28;20079;-75
2024/01/23 13:31:54;;;;;;;21.48;10.65;;;;;;;;;;5884628;28;20552;-75
2024/01/23 13:34:45;;;;;;;28.83;17.30;;;;;;;;;;5885385;28;20076;-76
2024/01/23 13:37:37;;;;;;;24.75;12.95;;;;;;;;;;5883999;28;20053;-76
2024/01/23 13:40:27;;;;;;;18.15;11.20;;;;;;;;;;5885238;28;20467;-76
2024/01/23 13:43:19;;;;;;;20.67;9.10;;;;;;;;;;5884858;28;20095;-76
2024/01/23 13:46:09;;;;;;;10.48;6.25;;;;;;;;;;5883753;28;20051;-76
2024/01/23 13:49:00;;;;;;;8.27;5.57;;;;;;;;;;5884016;28;20103;-76
2024/01/23 13:51:51;;;;;;;11.93;6.70;;;;;;;;;;5867348;28;20083;-76
2024/01/23 13:54:42;;;;;;;8.05;5.57;;;;;;;;;;5883596;28;20047;-76
2024/01/23 13:57:33;;;;;;;7.25;5.05;;;;;;;;;;5900063;28;20045;-76
2024/01/23 14:00:25;;;;;;;18.65;11.80;;;;;;;;;;5867296;28;20507;-76
2024/01/23 14:03:16;;;;;;;21.45;11.18;;;;;;;;;;5885067;28;20128;-76
2024/01/23 14:06:07;;;;;;;13.25;7.22;;;;;;;;;;5884907;28;20071;-76
2024/01/23 14:08:59;;;;;;;21.75;6.53;;;;;;;;;;5883937;28;20052;-76
2024/01/23 14:11:50;;;;;;;11.70;6.47;;;;;;;;;;5883393;28;20041;-76
2024/01/23 14:14:41;;;;;;;11.20;6.43;;;;;;;;;;5883559;28;20052;-76
2024/01/23 14:17:32;;;;;;;4.38;3.65;;;;;;;;;;5885945;28;20507;-75
2024/01/23 14:20:23;;;;;;;9.85;5.85;;;;;;;;;;5887698;28;20135;-75
2024/01/23 14:23:14;;;;;;;4.15;3.50;;;;;;;;;;5888960;28;20045;-76
2024/01/23 14:26:05;;;;;;;16.48;7.32;;;;;;;;;;5887552;28;20395;-75
2024/01/23 14:28:56;;;;;;;8.02;5.88;;;;;;;;;;5904432;28;20466;-75
2024/01/23 14:31:47;;;;;;;8.32;6.40;;;;;;;;;;5887475;28;20053;-75
2024/01/23 14:34:38;;;;;;;8.38;5.38;;;;;;;;;;5888676;28;20090;-75
2024/01/23 14:37:29;;;;;;;14.45;7.05;;;;;;;;;;5887016;28;20041;-75
2024/01/23 14:40:22;;;;;;;7.70;5.03;;;;;;;;;;5887355;28;20653;-75
2024/01/23 14:43:13;;;;;;;10.23;4.15;;;;;;;;;;5887679;28;20098;-76
2024/01/23 14:46:04;;;;;;;18.55;9.35;;;;;;;;;;5888475;28;20179;-76
2024/01/23 14:48:55;;;;;;;7.57;5.82;;;;;;;;;;5887623;28;20426;-75
2024/01/23 14:51:49;;;;;;;12.15;6.13;;;;;;;;;;5888194;28;20048;-74
2024/01/23 14:54:40;;;;;;;11.65;6.68;;;;;;;;;;5887491;28;20041;-76
2024/01/23 14:57:32;;;;;;;6.88;4.30;;;;;;;;;;5886722;28;20044;-75
2024/01/23 15:00:23;;;;;;;8.88;5.65;;;;;;;;;;5887118;28;20068;-76
2024/01/23 15:03:14;;;;;;;13.02;9.27;;;;;;;;;;5887759;28;20053;-76
2024/01/23 15:06:05;;;;;;;11.85;9.57;;;;;;;;;;5903343;28;20507;-76
2024/01/23 15:08:56;;;;;;;11.73;8.43;;;;;;;;;;5903694;28;20049;-76
2024/01/23 15:11:47;;;;;;;8.20;6.00;;;;;;;;;;5886489;28;20057;-76
2024/01/23 15:14:38;;;;;;;9.30;4.80;;;;;;;;;;5886617;28;20091;-75
2024/01/23 15:17:29;;;;;;;14.40;8.18;;;;;;;;;;5886381;28;20175;-76
2024/01/23 15:20:20;;;;;;;10.25;5.22;;;;;;;;;;5886530;28;20045;-76
2024/01/23 15:23:11;;;;;;;9.60;5.63;;;;;;;;;;5870178;28;20487;-77
2024/01/23 15:26:02;;;;;;;8.05;6.80;;;;;;;;;;5887637;28;20562;-77
2024/01/23 15:28:53;;;;;;;9.40;6.35;;;;;;;;;;5886345;28;20055;-76
2024/01/23 15:31:44;;;;;;;5.88;4.03;;;;;;;;;;5887595;28;20410;-75
2024/01/23 15:34:36;;;;;;;6.82;4.15;;;;;;;;;;5886495;28;20094;-76
2024/01/23 15:37:28;;;;;;;8.10;4.38;;;;;;;;;;5886073;28;20048;-77
2024/01/23 15:40:19;;;;;;;12.57;7.40;;;;;;;;;;5886204;28;20045;-76
2024/01/23 15:43:10;;;;;;;6.35;5.13;;;;;;;;;;5886045;28;20048;-77
2024/01/23 15:46:04;;;;;;;9.48;6.65;;;;;;;;;;5887335;28;20052;-77
2024/01/23 15:48:55;;;;;;;22.63;7.90;;;;;;;;;;5886328;28;20060;-76
2024/01/23 15:51:47;;;;;;;20.15;9.27;;;;;;;;;;5887299;28;20040;-76
2024/01/23 15:54:39;;;;;;;19.80;8.40;;;;;;;;;;5885902;28;20055;-76
2024/01/23 15:57:30;;;;;;;26.77;15.20;;;;;;;;;;5885758;28;20762;-77
2024/01/23 16:00:21;;;;;;;15.50;9.13;;;;;;;;;;5885918;28;20462;-76
2024/01/23 16:03:13;;;;;;;17.67;11.25;;;;;;;;;;5886164;28;20064;-76
2024/01/23 16:06:04;;;;;;;22.05;9.40;;;;;;;;;;5885619;28;20778;-77
2024/01/23 16:08:56;;;;;;;18.77;7.15;;;;;;;;;;5885926;28;20048;-76
2024/01/23 16:11:48;;;;;;;13.48;6.22;;;;;;;;;;5885529;28;20471;-75
2024/01/23 16:14:39;;;;;;;16.92;7.75;;;;;;;;;;5885696;28;20044;-75
2024/01/23 16:17:30;;;;;;;6.32;5.22;;;;;;;;;;5885464;28;20052;-77
2024/01/23 16:20:21;;;;;;;13.57;8.20;;;;;;;;;;5868862;28;20086;-76
2024/01/23 16:23:12;;;;;;;10.10;6.93;;;;;;;;;;5886552;28;20107;-77
2024/01/23 16:26:03;;;;;;;14.32;5.68;;;;;;;;;;5884757;28;20063;-77
2024/01/23 16:28:54;;;;;;;7.80;5.13;;;;;;;;;;5886775;28;20120;-76
2024/01/23 16:31:45;;;;;;;15.77;7.10;;;;;;;;;;5884916;28;20036;-76
2024/01/23 16:34:36;;;;;;;8.27;4.60;;;;;;;;;;5885210;28;20444;-76
2024/01/23 16:37:27;;;;;;;10.30;7.13;;;;;;;;;;5885111;28;20099;-76
2024/01/23 16:40:18;;;;;;;12.85;7.38;;;;;;;;;;5884109;28;20055;-77
2024/01/23 16:43:11;;;;;;;13.50;6.75;;;;;;;;;;5885303;28;20565;-77
2024/01/23 16:46:03;;;;;;;15.68;7.45;;;;;;;;;;5884828;28;20122;-77
2024/01/23 16:48:54;;;;;;;18.42;8.38;;;;;;;;;;5886591;28;20041;-75
2024/01/23 16:51:45;;;;;;;21.90;10.48;;;;;;;;;;5885902;28;20040;-76
2024/01/23 16:54:39;;;;;;;10.60;5.55;;;;;;;;;;5886041;28;20521;-77
2024/01/23 16:57:30;;;;;;;10.65;4.95;;;;;;;;;;5886427;28;20072;-77
2024/01/23 17:00:21;;;;;;;14.38;6.10;;;;;;;;;;5885022;28;20102;-76
2024/01/23 17:03:12;;;;;;;12.43;7.00;;;;;;;;;;5884423;28;20188;-76
2024/01/23 17:06:03;;;;;;;7.20;6.10;;;;;;;;;;5884483;28;20526;-77
2024/01/23 17:08:54;;;;;;;10.30;4.90;;;;;;;;;;5868390;28;20128;-76